createdAt,value
2022-11-28T00:01:21.909Z,7.53
2022-11-28T00:03:48.740Z,6.75
2022-11-28T00:06:16.046Z,6.97
2022-11-28T00:08:42.837Z,6.70
2022-11-28T00:11:11.108Z,7.32
2022-11-28T00:13:38.523Z,8.07
2022-11-28T00:16:07.947Z,9.00
2022-11-28T00:18:34.575Z,8.68
2022-11-28T00:21:03.619Z,6.55
2022-11-28T00:23:30.312Z,6.30
2022-11-28T00:25:59.137Z,6.35
2022-11-28T00:28:25.649Z,7.20
2022-11-28T00:30:52.151Z,10.25
2022-11-28T00:33:18.890Z,6.95
2022-11-28T00:35:45.418Z,7.47
2022-11-28T00:38:11.954Z,8.10
2022-11-28T00:40:38.577Z,8.55
2022-11-28T00:43:05.126Z,8.00
2022-11-28T00:45:31.716Z,7.93
2022-11-28T00:47:58.244Z,7.78
2022-11-28T00:50:24.940Z,6.38
2022-11-28T00:52:51.423Z,6.72
2022-11-28T00:55:18.093Z,6.68
2022-11-28T00:57:46.108Z,6.18
2022-11-28T01:00:13.094Z,6.95
2022-11-28T01:02:40.135Z,6.90
2022-11-28T01:05:07.244Z,7.97
2022-11-28T01:07:33.867Z,8.98
2022-11-28T01:10:00.439Z,6.40
2022-11-28T01:12:26.911Z,6.05
2022-11-28T01:14:53.643Z,7.40
2022-11-28T01:17:20.207Z,7.70
2022-11-28T01:19:46.788Z,6.90
2022-11-28T01:22:13.320Z,8.85
2022-11-28T01:24:39.892Z,7.78
2022-11-28T01:27:06.527Z,8.40
2022-11-28T01:29:32.975Z,7.97
2022-11-28T01:31:59.466Z,7.47
2022-11-28T01:34:26.002Z,7.15
2022-11-28T01:36:52.434Z,7.28
2022-11-28T01:39:18.920Z,7.03
2022-11-28T01:41:45.404Z,6.95
2022-11-28T01:44:11.835Z,7.68
2022-11-28T01:46:38.565Z,6.38
2022-11-28T01:49:15.526Z,5.65
2022-11-28T01:51:47.686Z,5.68
2022-11-28T01:54:17.828Z,5.63
2022-11-28T01:56:58.875Z,6.10
2022-11-28T01:59:29.670Z,5.28
2022-11-28T02:01:56.354Z,6.33
2022-11-28T02:04:26.893Z,5.85
2022-11-28T02:06:54.233Z,5.80
2022-11-28T02:09:21.191Z,5.28
2022-11-28T02:11:59.759Z,6.15
2022-11-28T02:15:05.384Z,6.97
2022-11-28T02:17:50.692Z,6.38
2022-11-28T02:20:39.944Z,6.28
2022-11-28T02:23:25.455Z,6.22
2022-11-28T02:26:10.556Z,5.65
2022-11-28T02:28:49.071Z,5.80
2022-11-28T02:31:30.395Z,4.97
2022-11-28T02:34:05.897Z,5.05
2022-11-28T02:36:36.881Z,5.00
2022-11-28T02:39:30.125Z,5.65
2022-11-28T02:42:08.833Z,5.10
2022-11-28T02:44:47.514Z,5.07
2022-11-28T02:47:23.461Z,5.10
2022-11-28T02:50:13.684Z,5.72
2022-11-28T02:52:45.380Z,5.75
2022-11-28T02:57:48.499Z,5.20
2022-11-28T03:00:26.970Z,4.82
2022-11-28T03:03:35.906Z,5.15
2022-11-28T03:06:23.879Z,5.30
2022-11-28T03:09:08.841Z,4.93
2022-11-28T03:12:07.456Z,4.88
2022-11-28T03:14:55.837Z,5.25
2022-11-28T03:17:22.207Z,5.15
2022-11-28T03:20:07.497Z,4.57
2022-11-28T03:22:44.985Z,4.38
2022-11-28T03:25:30.095Z,4.78
2022-11-28T03:28:07.175Z,5.55
2022-11-28T03:31:00.157Z,5.18
2022-11-28T03:33:33.143Z,5.88
2022-11-28T03:36:16.718Z,4.50
2022-11-28T03:38:48.100Z,3.97
2022-11-28T03:41:19.267Z,4.63
2022-11-28T03:43:56.627Z,4.55
2022-11-28T03:46:30.747Z,4.55
2022-11-28T03:48:59.888Z,4.93
2022-11-28T03:51:53.247Z,5.15
2022-11-28T03:54:26.811Z,4.63
2022-11-28T03:57:23.051Z,4.57
2022-11-28T03:59:53.025Z,4.57
2022-11-28T04:02:40.092Z,4.95
2022-11-28T04:05:37.407Z,4.38
2022-11-28T04:08:24.402Z,5.47
2022-11-28T04:10:58.385Z,4.43
2022-11-28T04:13:54.934Z,4.78
2022-11-28T04:16:31.602Z,4.38
2022-11-28T04:19:06.260Z,4.30
2022-11-28T04:21:39.875Z,4.93
2022-11-28T04:24:11.387Z,4.70
2022-11-28T04:26:48.798Z,4.80
2022-11-28T04:29:18.567Z,5.60
2022-11-28T04:31:46.420Z,4.30
2022-11-28T04:34:17.471Z,5.05
2022-11-28T04:36:45.847Z,4.88
2022-11-28T04:39:18.237Z,4.80
2022-11-28T04:42:19.161Z,4.90
2022-11-28T04:45:11.831Z,4.15
2022-11-28T04:47:38.537Z,4.85
2022-11-28T04:50:05.960Z,4.45
2022-11-28T04:52:40.856Z,4.85
2022-11-28T04:55:07.348Z,4.72
2022-11-28T04:57:40.176Z,3.97
2022-11-28T05:00:17.341Z,4.07
2022-11-28T05:02:46.599Z,3.97
2022-11-28T05:05:17.558Z,4.72
2022-11-28T05:07:44.105Z,4.88
2022-11-28T05:10:11.908Z,4.95
2022-11-28T05:12:38.853Z,4.65
2022-11-28T05:15:06.957Z,4.30
2022-11-28T05:17:37.684Z,4.25
2022-11-28T05:20:07.597Z,4.43
2022-11-28T05:22:34.131Z,4.93
2022-11-28T05:25:00.587Z,4.82
2022-11-28T05:27:27.031Z,4.30
2022-11-28T05:29:53.825Z,4.43
2022-11-28T05:32:20.416Z,4.20
2022-11-28T05:34:46.882Z,5.03
2022-11-28T05:37:13.384Z,5.05
2022-11-28T05:39:40.035Z,4.25
2022-11-28T05:42:06.803Z,4.40
2022-11-28T05:44:33.250Z,4.35
2022-11-28T05:46:59.810Z,5.00
2022-11-28T05:49:26.390Z,4.78
2022-11-28T05:51:52.855Z,4.15
2022-11-28T05:54:19.441Z,4.47
2022-11-28T05:56:45.979Z,5.28
2022-11-28T05:59:13.791Z,5.20
2022-11-28T06:01:40.538Z,5.25
2022-11-28T06:04:07.100Z,4.32
2022-11-28T06:06:35.223Z,4.70
2022-11-28T06:09:01.936Z,4.90
2022-11-28T06:11:30.522Z,5.47
2022-11-28T06:13:57.145Z,4.93
2022-11-28T06:16:28.252Z,5.13
2022-11-28T06:18:56.230Z,4.95
2022-11-28T06:21:23.839Z,4.95
2022-11-28T06:23:50.586Z,5.28
2022-11-28T06:26:20.717Z,4.45
2022-11-28T06:28:47.638Z,5.13
2022-11-28T06:31:27.336Z,4.95
2022-11-28T06:33:54.141Z,5.03
2022-11-28T06:36:20.745Z,5.50
2022-11-28T06:38:48.101Z,5.10
2022-11-28T06:41:17.917Z,4.88
2022-11-28T06:43:44.384Z,5.40
2022-11-28T06:46:16.155Z,5.38
2022-11-28T06:48:43.925Z,5.18
2022-11-28T06:51:11.278Z,4.97
2022-11-28T06:53:37.999Z,4.70
2022-11-28T06:56:10.211Z,5.05
2022-11-28T06:58:36.885Z,4.55
2022-11-28T07:01:12.001Z,5.70
2022-11-28T07:03:39.556Z,7.20
2022-11-28T07:06:07.043Z,6.68
2022-11-28T07:08:34.198Z,5.38
2022-11-28T07:11:11.243Z,5.47
2022-11-28T07:13:38.563Z,4.68
2022-11-28T07:16:05.682Z,5.10
2022-11-28T07:18:32.965Z,4.45
2022-11-28T07:20:59.818Z,4.95
2022-11-28T07:23:26.568Z,5.05
2022-11-28T07:25:58.584Z,4.20
2022-11-28T07:28:25.444Z,4.68
2022-11-28T07:31:10.720Z,4.88
2022-11-28T07:33:38.610Z,4.65
2022-11-28T07:36:08.664Z,4.13
2022-11-28T07:38:35.241Z,4.90
2022-11-28T07:41:13.472Z,5.38
2022-11-28T07:43:45.315Z,5.43
2022-11-28T07:46:14.778Z,4.53
2022-11-28T07:48:42.166Z,5.00
2022-11-28T07:51:14.046Z,5.00
2022-11-28T07:53:40.933Z,4.85
2022-11-28T07:56:12.958Z,5.50
2022-11-28T07:58:39.519Z,5.57
2022-11-28T08:01:14.388Z,5.07
2022-11-28T08:03:41.110Z,5.03
2022-11-28T08:06:08.775Z,4.47
2022-11-28T08:08:35.729Z,4.68
2022-11-28T08:11:05.082Z,4.22
2022-11-28T08:13:31.986Z,4.78
2022-11-28T08:16:00.888Z,4.75
2022-11-28T08:18:27.551Z,4.18
2022-11-28T08:21:03.796Z,4.15
2022-11-28T08:23:30.209Z,4.35
2022-11-28T08:25:56.724Z,3.92
2022-11-28T08:28:23.203Z,3.85
2022-11-28T08:30:49.740Z,3.65
2022-11-28T08:33:16.272Z,3.42
2022-11-28T08:35:42.709Z,3.67
2022-11-28T08:38:09.176Z,3.55
2022-11-28T08:40:35.787Z,3.90
2022-11-28T08:43:02.279Z,4.32
2022-11-28T08:45:28.826Z,4.40
2022-11-28T08:47:55.300Z,4.38
2022-11-28T08:50:22.046Z,3.92
2022-11-28T08:52:48.772Z,3.75
2022-11-28T08:55:15.332Z,4.10
2022-11-28T08:57:41.800Z,3.47
2022-11-28T09:00:08.716Z,3.95
2022-11-28T09:02:35.259Z,3.40
2022-11-28T09:05:01.720Z,3.88
2022-11-28T09:07:28.314Z,3.92
2022-11-28T09:09:54.802Z,3.88
2022-11-28T09:12:21.227Z,3.92
2022-11-28T09:14:47.777Z,3.83
2022-11-28T09:17:15.884Z,3.60
2022-11-28T09:19:43.077Z,4.20
2022-11-28T09:22:09.884Z,4.32
2022-11-28T09:24:36.391Z,4.47
2022-11-28T09:27:02.911Z,3.55
2022-11-28T09:29:29.510Z,4.10
2022-11-28T09:31:55.943Z,3.97
2022-11-28T09:34:22.454Z,4.35
2022-11-28T09:36:50.011Z,4.43
2022-11-28T09:39:16.570Z,3.78
2022-11-28T09:42:00.491Z,3.72
2022-11-28T09:44:37.563Z,3.38
2022-11-28T09:47:12.076Z,2.78
2022-11-28T09:49:52.547Z,2.78
2022-11-28T09:52:29.587Z,2.72
2022-11-28T09:55:04.193Z,2.63
2022-11-28T09:57:49.246Z,2.80
2022-11-28T10:00:22.571Z,2.58
2022-11-28T10:03:00.782Z,2.83
2022-11-28T10:05:42.070Z,2.92
2022-11-28T10:08:29.792Z,2.83
2022-11-28T10:11:34.066Z,2.90
2022-11-28T10:14:18.568Z,3.15
2022-11-28T10:16:57.539Z,3.67
2022-11-28T10:22:31.163Z,3.60
2022-11-28T10:25:03.278Z,3.00
2022-11-28T10:27:34.942Z,3.22
2022-11-28T10:32:41.067Z,2.67
2022-11-28T10:35:26.718Z,3.30
2022-11-28T10:37:54.867Z,2.25
2022-11-28T10:40:48.430Z,2.35
2022-11-28T10:43:44.009Z,3.30
2022-11-28T10:46:30.017Z,2.63
2022-11-28T10:49:05.744Z,3.13
2022-11-28T10:52:04.153Z,3.03
2022-11-28T10:55:01.854Z,3.00
2022-11-28T10:57:48.595Z,2.92
2022-11-28T11:00:18.443Z,2.67
2022-11-28T11:02:54.851Z,3.20
2022-11-28T11:05:26.819Z,3.20
2022-11-28T11:07:55.486Z,3.40
2022-11-28T11:11:03.503Z,3.30
2022-11-28T11:13:33.336Z,3.45
2022-11-28T11:16:04.679Z,5.13
2022-11-28T11:18:34.917Z,4.45
2022-11-28T11:21:20.157Z,3.67
2022-11-28T11:23:48.215Z,3.85
2022-11-28T11:26:25.339Z,3.05
2022-11-28T11:28:52.419Z,4.80
2022-11-28T11:31:21.805Z,5.70
2022-11-28T11:33:53.005Z,5.07
2022-11-28T11:36:26.377Z,3.88
2022-11-28T11:39:05.443Z,3.55
2022-11-28T11:41:32.857Z,3.55
2022-11-28T11:44:20.375Z,4.22
2022-11-28T11:47:03.842Z,4.93
2022-11-28T11:49:43.981Z,4.43
2022-11-28T11:52:16.787Z,4.50
2022-11-28T11:54:54.419Z,4.65
2022-11-28T11:57:34.750Z,4.03
2022-11-28T12:00:14.841Z,3.35
2022-11-28T12:02:54.768Z,3.55
2022-11-28T12:06:06.154Z,3.20
2022-11-28T12:08:43.527Z,3.60
2022-11-28T12:11:34.045Z,3.50
2022-11-28T12:14:22.669Z,4.10
2022-11-28T12:17:14.346Z,5.93
2022-11-28T12:20:01.334Z,5.45
2022-11-28T12:22:48.668Z,4.65
2022-11-28T12:25:38.430Z,4.78
2022-11-28T12:28:16.948Z,4.32
2022-11-28T12:31:22.923Z,4.40
2022-11-28T12:34:25.315Z,4.75
2022-11-28T12:36:57.843Z,4.63
2022-11-28T12:39:39.727Z,5.18
2022-11-28T12:45:10.427Z,5.28
2022-11-28T12:48:07.478Z,5.22
2022-11-28T12:50:42.773Z,6.22
2022-11-28T12:53:46.711Z,5.88
2022-11-28T12:56:58.215Z,5.65
2022-11-28T12:59:43.581Z,5.18
2022-11-28T13:02:47.800Z,6.70
2022-11-28T13:05:25.657Z,7.22
2022-11-28T13:08:01.253Z,7.72
2022-11-28T13:10:31.419Z,6.97
2022-11-28T13:13:03.638Z,6.63
2022-11-28T13:15:48.432Z,7.72
2022-11-28T13:18:26.697Z,8.88
2022-11-28T13:20:57.684Z,8.57
2022-11-28T13:23:45.814Z,9.43
2022-11-28T13:26:41.479Z,11.23
2022-11-28T13:29:40.380Z,9.43
2022-11-28T13:32:22.041Z,9.27
2022-11-28T13:34:49.519Z,10.45
2022-11-28T13:40:31.248Z,43.10
2022-11-28T13:43:30.362Z,6.88
2022-11-28T13:45:56.961Z,5.15
2022-11-28T13:49:05.999Z,5.85
2022-11-28T13:51:31.584Z,4.07
2022-11-28T13:54:17.071Z,5.30
2022-11-28T13:57:03.606Z,12.30
2022-11-28T13:59:31.648Z,19.05
2022-11-28T14:02:05.137Z,14.95
2022-11-28T14:04:32.776Z,9.60
2022-11-28T14:07:06.552Z,7.38
2022-11-28T14:09:52.552Z,6.20
2022-11-28T14:12:47.175Z,8.95
2022-11-28T14:15:34.859Z,5.70
2022-11-28T14:18:24.772Z,6.00
2022-11-28T14:21:11.611Z,6.22
2022-11-28T14:23:49.330Z,6.22
2022-11-28T14:26:35.128Z,3.92
2022-11-28T14:29:04.890Z,3.63
2022-11-28T14:31:39.017Z,3.95
2022-11-28T14:34:27.536Z,3.90
2022-11-28T14:37:19.612Z,3.28
2022-11-28T14:39:48.707Z,3.45
2022-11-28T14:42:36.925Z,4.13
2022-11-28T14:45:23.243Z,3.85
2022-11-28T14:48:30.241Z,4.07
2022-11-28T14:51:01.643Z,4.50
2022-11-28T14:53:35.332Z,3.70
2022-11-28T14:56:13.863Z,6.68
2022-11-28T14:58:47.728Z,4.80
2022-11-28T15:01:23.128Z,4.30
2022-11-28T15:04:17.122Z,4.55
2022-11-28T15:06:44.699Z,3.88
2022-11-28T15:09:34.490Z,5.10
2022-11-28T15:12:22.944Z,4.00
2022-11-28T15:14:56.155Z,4.38
2022-11-28T15:17:28.623Z,5.32
2022-11-28T15:19:57.300Z,4.82
2022-11-28T15:22:53.249Z,5.10
2022-11-28T15:25:25.620Z,5.10
2022-11-28T15:27:53.223Z,4.90
2022-11-28T15:30:26.425Z,3.95
2022-11-28T15:32:59.601Z,4.25
2022-11-28T15:35:27.224Z,4.40
2022-11-28T15:37:57.857Z,4.13
2022-11-28T15:40:36.170Z,4.30
2022-11-28T15:43:09.489Z,4.28
2022-11-28T15:45:42.063Z,4.63
2022-11-28T15:48:26.649Z,5.40
2022-11-28T15:50:53.476Z,5.88
2022-11-28T15:53:21.262Z,6.28
2022-11-28T15:55:47.951Z,5.80
2022-11-28T15:58:31.448Z,5.45
2022-11-28T16:01:05.436Z,7.57
2022-11-28T16:03:45.557Z,6.00
2022-11-28T16:06:12.442Z,5.65
2022-11-28T16:08:41.296Z,6.38
2022-11-28T16:11:10.105Z,5.47
2022-11-28T16:13:39.250Z,6.28
2022-11-28T16:16:12.453Z,5.18
2022-11-28T16:18:45.467Z,5.80
2022-11-28T16:21:13.875Z,6.50
2022-11-28T16:23:41.387Z,6.78
2022-11-28T16:26:22.142Z,6.72
2022-11-28T16:29:06.858Z,6.85
2022-11-28T16:31:34.666Z,6.95
2022-11-28T16:34:02.655Z,7.10
2022-11-28T16:36:35.642Z,6.65
2022-11-28T16:39:09.859Z,7.47
2022-11-28T16:41:42.318Z,7.95
2022-11-28T16:44:15.502Z,6.80
2022-11-28T16:46:53.911Z,6.82
2022-11-28T16:49:35.781Z,8.13
2022-11-28T16:54:51.873Z,8.95
2022-11-28T16:57:20.131Z,9.02
2022-11-28T16:59:48.061Z,11.40
2022-11-28T17:02:22.471Z,9.73
2022-11-28T17:04:50.783Z,9.02
2022-11-28T17:07:23.166Z,10.13
2022-11-28T17:09:50.902Z,9.43
2022-11-28T17:12:28.239Z,8.82
2022-11-28T17:14:56.019Z,10.00
2022-11-28T17:17:23.707Z,9.65
2022-11-28T17:19:50.687Z,9.10
2022-11-28T17:22:20.800Z,14.32
2022-11-28T17:24:48.660Z,9.38
2022-11-28T17:27:15.574Z,15.38
2022-11-28T17:29:42.443Z,13.98
2022-11-28T17:32:13.519Z,11.32
2022-11-28T17:34:42.107Z,10.70
2022-11-28T17:37:09.299Z,9.15
2022-11-28T17:39:35.776Z,10.80
2022-11-28T17:42:02.488Z,11.07
2022-11-28T17:44:34.296Z,10.43
2022-11-28T17:47:02.126Z,11.82
2022-11-28T17:49:29.428Z,11.05
2022-11-28T17:51:56.606Z,10.43
2022-11-28T17:54:25.164Z,10.27
2022-11-28T17:56:53.092Z,11.23
2022-11-28T17:59:21.776Z,13.77
2022-11-28T18:01:48.622Z,15.00
2022-11-28T18:04:15.387Z,11.40
2022-11-28T18:06:46.879Z,13.68
2022-11-28T18:09:13.941Z,13.50
2022-11-28T18:11:41.947Z,13.52
2022-11-28T18:14:08.983Z,12.70
2022-11-28T18:16:36.122Z,12.25
2022-11-28T18:19:03.928Z,27.48
2022-11-28T18:21:30.679Z,12.55
2022-11-28T18:23:57.398Z,11.82
2022-11-28T18:26:26.000Z,12.02
2022-11-28T18:28:52.886Z,13.15
2022-11-28T18:31:26.005Z,10.48
2022-11-28T18:33:58.726Z,11.55
2022-11-28T18:36:29.892Z,10.77
2022-11-28T18:38:58.619Z,10.93
2022-11-28T18:41:26.048Z,12.50
2022-11-28T18:43:57.312Z,14.82
2022-11-28T18:46:25.936Z,14.52
2022-11-28T18:48:53.688Z,11.27
2022-11-28T18:51:27.700Z,11.68
2022-11-28T18:53:55.408Z,12.18
2022-11-28T18:56:23.862Z,11.85
2022-11-28T18:58:52.374Z,11.23
2022-11-28T19:01:29.981Z,11.00
2022-11-28T19:04:02.414Z,10.93
2022-11-28T19:06:29.339Z,10.70
2022-11-28T19:08:58.613Z,11.85
2022-11-28T19:11:25.979Z,12.27
2022-11-28T19:13:53.410Z,10.20
2022-11-28T19:16:23.128Z,10.82
2022-11-28T19:18:49.716Z,12.00
2022-11-28T19:21:21.734Z,11.88
2022-11-28T19:23:49.262Z,12.15
2022-11-28T19:26:19.570Z,12.05
2022-11-28T19:28:47.735Z,11.50
2022-11-28T19:31:27.129Z,11.20
2022-11-28T19:34:01.499Z,10.68
2022-11-28T19:36:33.272Z,11.10
2022-11-28T19:39:00.235Z,13.25
2022-11-28T19:41:28.014Z,11.95
2022-11-28T19:43:56.495Z,13.32
2022-11-28T19:46:23.259Z,12.93
2022-11-28T19:48:51.535Z,12.85
2022-11-28T19:51:19.055Z,13.70
2022-11-28T19:53:45.986Z,13.15
2022-11-28T19:56:19.291Z,13.52
2022-11-28T19:58:47.006Z,14.02
2022-11-28T20:01:19.202Z,13.25
2022-11-28T20:03:47.746Z,13.60
2022-11-28T20:06:14.323Z,13.65
2022-11-28T20:08:42.613Z,13.82
2022-11-28T20:11:23.378Z,12.15
2022-11-28T20:13:56.273Z,11.67
2022-11-28T20:16:23.027Z,12.60
2022-11-28T20:18:49.543Z,13.02
2022-11-28T20:21:19.038Z,13.02
2022-11-28T20:23:51.754Z,12.95
2022-11-28T20:26:20.447Z,12.98
2022-11-28T20:28:48.096Z,12.63
2022-11-28T20:31:33.858Z,13.35
2022-11-28T20:34:01.914Z,12.73
2022-11-28T20:36:31.144Z,10.40
2022-11-28T20:38:58.699Z,11.05
2022-11-28T20:41:26.496Z,12.63
2022-11-28T20:43:53.283Z,11.52
2022-11-28T20:46:27.032Z,11.90
2022-11-28T20:48:54.296Z,11.63
2022-11-28T20:51:26.792Z,12.27
2022-11-28T20:53:54.446Z,13.05
2022-11-28T20:56:23.439Z,12.20
2022-11-28T20:58:50.274Z,12.18
2022-11-28T21:01:19.809Z,12.27
2022-11-28T21:03:46.512Z,11.88
2022-11-28T21:06:13.169Z,12.55
2022-11-28T21:08:40.363Z,11.68
2022-11-28T21:11:09.215Z,13.23
2022-11-28T21:13:35.819Z,13.35
2022-11-28T21:16:13.839Z,12.75
2022-11-28T21:18:41.449Z,13.93
2022-11-28T21:21:16.071Z,12.77
2022-11-28T21:23:43.603Z,11.85
2022-11-28T21:26:19.470Z,11.82
2022-11-28T21:28:48.141Z,12.15
2022-11-28T21:31:21.690Z,11.38
2022-11-28T21:33:49.088Z,12.50
2022-11-28T21:36:15.858Z,12.50
2022-11-28T21:38:42.780Z,12.68
2022-11-28T21:41:09.402Z,13.50
2022-11-28T21:43:36.133Z,13.20
2022-11-28T21:46:05.346Z,14.80
2022-11-28T21:48:34.540Z,13.48
2022-11-28T21:51:03.614Z,14.18
2022-11-28T21:53:32.039Z,14.13
2022-11-28T21:56:03.039Z,14.25
2022-11-28T21:58:30.690Z,14.32
2022-11-28T22:01:03.546Z,14.95
2022-11-28T22:03:31.913Z,14.15
2022-11-28T22:06:17.157Z,12.95
2022-11-28T22:08:44.343Z,12.13
2022-11-28T22:11:13.114Z,11.98
2022-11-28T22:13:42.138Z,12.77
2022-11-28T22:16:40.428Z,13.55
2022-11-28T22:19:07.784Z,14.00
2022-11-28T22:21:55.292Z,13.23
2022-11-28T22:24:22.883Z,12.40
2022-11-28T22:26:49.628Z,12.05
2022-11-28T22:29:16.944Z,12.95
2022-11-28T22:31:43.560Z,13.65
2022-11-28T22:34:10.724Z,14.32
2022-11-28T22:36:38.058Z,12.93
2022-11-28T22:39:04.716Z,14.55
2022-11-28T22:41:31.643Z,12.82
2022-11-28T22:44:00.920Z,13.32
2022-11-28T22:46:29.779Z,13.02
2022-11-28T22:48:59.878Z,14.25
2022-11-28T22:51:26.785Z,13.70
2022-11-28T22:53:58.390Z,14.25
2022-11-28T22:56:27.215Z,14.05
2022-11-28T22:58:54.239Z,14.85
2022-11-28T23:01:24.220Z,14.82
2022-11-28T23:03:51.595Z,16.48
2022-11-28T23:06:24.069Z,15.75
2022-11-28T23:08:55.567Z,15.88
2022-11-28T23:11:25.782Z,16.20
2022-11-28T23:13:53.174Z,16.92
2022-11-28T23:16:25.715Z,16.83
2022-11-28T23:18:55.541Z,16.48
2022-11-28T23:21:24.619Z,17.77
2022-11-28T23:23:51.762Z,16.13
2022-11-28T23:26:21.306Z,17.60
2022-11-28T23:28:48.496Z,16.52
2022-11-28T23:31:18.592Z,17.52
2022-11-28T23:33:46.665Z,17.42
2022-11-28T23:36:23.667Z,16.92
2022-11-28T23:38:55.924Z,15.25
2022-11-28T23:41:23.306Z,16.35
2022-11-28T23:43:50.072Z,15.32
2022-11-28T23:46:17.915Z,17.30
2022-11-28T23:48:45.205Z,16.70
2022-11-28T23:51:13.770Z,17.35
2022-11-28T23:53:41.317Z,16.65
2022-11-28T23:56:13.416Z,16.55
2022-11-28T23:58:41.209Z,17.35
